AirNav   Jet Aviation Boston
 
 835 users online  

C08 Silver West Airport
Westcliffe, Colorado, USA

GOING TO WESTCLIFFE?


FAA INFORMATION EFFECTIVE 24 MAY 2018

Location

FAA Identifier: C08
Lat/Long: 38-00-47.8000N / 105-22-27.3800W
38-00.796667N / 105-22.456333W
38.0132778 / -105.3742722
(estimated)
Elevation: 8290 ft. / 2527 m (estimated)
Variation: 11E (1985)
From city: 9 miles SE of WESTCLIFFE, CO
Time zone: UTC -6 (UTC -7 during Standard Time)
Zip code: 81252

Airport Operations

Airport use: Open to the public
Activation date: 04/1973
Control tower: no
ARTCC: DENVER CENTER
FSS: DENVER FLIGHT SERVICE STATION
NOTAMs facility: DEN (NOTAM-D service available)
Attendance: UNATNDD
Wind indicator: yes
Segmented circle: no

Airport Communications

CTAF: 122.9

Airport Services

Fuel available: 100LL
24 HR SELF SERVE FUEL.
Parking: tiedowns
Airframe service: NONE
Powerplant service: NONE
Bottled oxygen: NONE
Bulk oxygen: NONE

Runway Information

Runway 13/31

Dimensions: 6954 x 55 ft. / 2120 x 17 m
Surface: asphalt, in good condition
HAS VARYING TERRAIN HEIGHTS FROM -5 TO +12 FT ALONG FULL LENGTH OF RY INSIDE OF PRIMARY SURFACE.
RUNWAY 13  RUNWAY 31
Latitude: 38-01.282500N38-00.310833N
Longitude: 105-22.840000W105-22.072667W
Elevation: 8274.0 ft.
Traffic pattern: rightleft
Markings: basic, in good conditionbasic, in good condition
Obstructions: none12 ft. gnd, 200 ft. from runway
HAS +12 FT TERRAIN 120 FT FM THLD 0B.

Airport Ownership and Management from official FAA records

Ownership: Publicly-owned
Owner: CUSTER COUNTY, COLORADO
360 CR 310, P.O. BOX 150
WESTCLIFFE, CO 81252
Phone 719-783-2695
Manager: ROBERT JOLEY
P.O. BOX 150
WESTCLIFFE, CO 81252
Phone 719-783-2286

Airport Operational Statistics

Aircraft based on the field: 11
Single engine airplanes: 9
Multi engine airplanes: 1
Gliders airplanes: 1
  • FREQUENT GLIDER USE.
    
Aircraft operations: avg 86/week *
60% local general aviation
40% transient general aviation
* for 12-month period ending 31 December 2014

Additional Remarks

RY 13/31 HAS +15 FT HWY 120 FT WEST OF & PARALLEL TO CNTRLN FULL LENGTH, +4 FT FENCE 100 FT WEST OF & PARALLEL TO CNTRLN FULL LENGTH.
OCCASIONAL DEER & ELK ON RY 13/31.
PUBLIC USE TELEPHONE AND FREE WIFI AVBL.
BE ALERT; INTENSIVE USAF STUDENT TRAINING IN VICINITY OF COLORADO SPRINGS & PUEBLO COLORADO.

Instrument Procedures

There are no published instrument procedures at C08.

Some nearby airports with instrument procedures:

1V6 - Fremont County Airport (28 nm NE)
4V1 - Spanish Peaks Airfield (34 nm SE)
KALS - San Luis Valley Regional Airport/Bergman Field (42 nm SW)
KMVI - Monte Vista Municipal Airport (43 nm SW)
KPUB - Pueblo Memorial Airport (45 nm E)
 
Loc | Ops | Rwys | IFR | FBO | Links
Com | Nav | Svcs | Stats | Notes

AirNav Hotels Sweepstakes
 
Area around C08 (Silver West Airport)
 
Road maps at: MapQuest Bing Google
 
Aerial photo
WARNING: Photo may not be current or correct
Aerial photo of C08 (Silver West Airport)
Photo by David Newcomer
Photo taken 31-Mar-2012
from 13,500' looking northwest.

Do you have a better or more recent aerial photo of Silver West Airport that you would like to share? If so, please send us your photo.

 
Sectional chart

 
Airport distance calculator
Flying to Silver West Airport? Find the distance to fly.

From to C08

Sunrise and sunset
Times for 19-Jun-2018
 Local
(UTC-6)
 Zulu
(UTC)
Morning civil twilight05:0811:08
Sunrise05:4011:40
Sunset20:2602:26
Evening civil twilight20:5702:57

Current date and time
Zulu (UTC)  19-Jun-2018 12:05:29
Local (UTC-6)  19-Jun-2018 06:05:29
 
METAR
KVTP 
32nm S 
191154Z AUTO 14009G24KT 10SM CLR 12/M01 A3049 RMK AO2
K04V 
38nm W 
191154Z AUTO 33006KT 10SM CLR 06/01 A3023 RMK AO2
KALS 
42nm SW 
191152Z AUTO 10SM CLR 06/01 A3020 RMK AO2 SLP139 T00610006 10133 20056 53003
KPUB 
44nm E 
191153Z 01003KT 7SM CLR 18/14 A3006 RMK AO2 SLP104 T01830139 10228 20183 53033
KANK 
45nm NW 
191155Z AUTO 00000KT 10SM CLR 11/01 A3027 RMK AO1 T01130007 10193 20107
KFCS 
49nm NE 
191058Z AUTO 02013KT 10SM CLR 16/13 A3010 RMK AO2 SLP130 T01580127 $
KRCV 
50nm W 
191155Z AUTO 30006KT 10SM BKN095 09/00 A3023 RMK AO2 T00911004 10144 20086
TAF
KALS 
42nm SW 
191123Z 1912/2012 VRB06KT P6SM FEW150 FM191700 23014KT P6SM FEW150 FM192300 26017KT P6SM SCT150 FM200300 31009KT P6SM FEW150 FM200600 VRB05KT P6SM FEW150
KPUB 
44nm E 
191123Z 1912/2012 02015KT P6SM FEW150 TEMPO 1912/1915 02018G30KT FM191600 07010KT P6SM FEW060 SCT150 FM192300 06013G23KT P6SM VCTS SCT040 OVC070CB FM200600 04010KT P6SM SCT030 BKN090
KFCS 
49nm NE 
190700Z 1907/2011 36012G18KT 9999 SCT070 BKN180 QNH3000INS TEMPO 1907/1909 35015G25KT BECMG 1911/1912 35012KT 9999 FEW080 SCT180 QNH3001INS BECMG 1914/1915 15012KT 9999 FEW070 QNH2998INS BECMG 1920/1921 35012G18KT 9999 VCTS BKN120CB QNH2997INS TEMPO 1922/2004 VRB25G35KT -TSRAGR BECMG 2005/2006 05012KT 9999 NSW SCT120 BKN200 QNH3004INS TX29/1921Z TN13/1912Z
NOTAMs
Click for the latest NOTAMs
NOTAMs are issued by the DoD/FAA and will open in a separate window not controlled by AirNav.

 

 
 

FBO, Fuel Providers, and Aircraft Ground Support

  
 Business Name 
 
 Contact 
 
 Services / Description 
 
Fuel Prices
 
Comments
  
 SilverWest/Custer County Airport
122.90
719-783-2695
[web site]
[email]
Silver West Airport is located in the beautiful rocky mountains. At the base of both the Sangre de Cristo Mountain Range and the Wet Mountian Range.

More info about SilverWest/Custer County Airport
Phillips 66
100LL
SS $4.55 
 Updated 14-May-2018
 
   2 read write
SS=Self service
Update Fuel Prices
 

Miscellaneous businesses, services or facilities

  
 Business Name 
 
 Contact 
 
 Services / Description 
 
Distance
 
Comments
  
Dorito Verde 316-640-9393
[web site]
[email]
Hangars, Rental cars, Internet access, Restrooms, Showers, Lodging, Residence

More info about Dorito Verde
on airport  
   write
 

Would you like to see your business listed on this page?

 If your business provides an interesting product or service to pilots, flight crews, aircraft, or users of the Silver West Airport, you should consider listing it here.  To start the listing process, click on the button below
 
Add a business
 

Other Pages about Silver West Airport

silverwestairport.custercountygov.com
 
Update a link
 
Copyright © AirNav, LLC. All rights reserved. Privacy Policy  Contact